ETD56T OMAA-EGLL
Flight info
| Callsign | ETD56T |
|---|---|
| Flight time | N/A |
| Altitude | 38000 |
| Route | DAXIB Q563 UKUVO G462 TUMAK L602 GADSI M860 KODAV/N0490F380 M860 NINVA UM860 CRM UL746 GOKPA UM10 TIVUG UL852 NEGEM DCT DEGET DCT BEGLA DCT DITIS DCT OKG/N0479F400 DCT VELIS DCT SWALM DCT TORNU DCT BREDA DCT ABNED L980 LOGAN |
| Aircraft | A388/J-SADE2E3FGHIJ3J4J5M1RWXY/LB1D1 |
Departure
| Time | N/A |
|---|---|
| Airport | Zayed International Airport (OMAA) |
Arrival
| Time | 2026-05-04 15:58 |
|---|---|
| Airport | London Heathrow Airport (EGLL) |
| Time | Latitude | Longitude | Altitude | Speed | Heading |
|---|---|---|---|---|---|
| 2026-05-04 13:36 | 45.49428 | 23.65319 | 38070 ft | 481 kts | 304° |
| 2026-05-04 13:37 | 45.51193 | 23.61280 | 38069 ft | 481 kts | 304° |
| 2026-05-04 13:37 | 45.54725 | 23.53174 | 38100 ft | 481 kts | 304° |
| 2026-05-04 13:38 | 45.58257 | 23.45046 | 38091 ft | 482 kts | 303° |
| 2026-05-04 13:38 | 45.61780 | 23.36911 | 38085 ft | 482 kts | 303° |
| 2026-05-04 13:39 | 45.65300 | 23.28765 | 38082 ft | 482 kts | 303° |
| 2026-05-04 13:39 | 45.68813 | 23.20611 | 38083 ft | 481 kts | 303° |
| 2026-05-04 13:40 | 45.72318 | 23.12446 | 38084 ft | 481 kts | 303° |
| 2026-05-04 13:40 | 45.75813 | 23.04286 | 38075 ft | 481 kts | 303° |
| 2026-05-04 13:41 | 45.79304 | 22.96110 | 38085 ft | 481 kts | 303° |
| 2026-05-04 13:41 | 45.82783 | 22.87938 | 38082 ft | 480 kts | 303° |
| 2026-05-04 13:42 | 45.87987 | 22.75670 | 38083 ft | 479 kts | 303° |
| 2026-05-04 13:42 | 45.91446 | 22.67485 | 38086 ft | 479 kts | 303° |
| 2026-05-04 13:43 | 45.94899 | 22.59292 | 38082 ft | 479 kts | 303° |
| 2026-05-04 13:43 | 45.98340 | 22.51102 | 38087 ft | 479 kts | 303° |
| 2026-05-04 13:44 | 46.01777 | 22.42899 | 38090 ft | 478 kts | 303° |
| 2026-05-04 13:44 | 46.05202 | 22.34697 | 38091 ft | 478 kts | 303° |
| 2026-05-04 13:45 | 46.08623 | 22.26484 | 38098 ft | 477 kts | 302° |
| 2026-05-04 13:45 | 46.12032 | 22.18278 | 38095 ft | 477 kts | 302° |
| 2026-05-04 13:46 | 46.15431 | 22.10066 | 38101 ft | 477 kts | 302° |
| 2026-05-04 13:46 | 46.18823 | 22.01848 | 38100 ft | 476 kts | 302° |
| 2026-05-04 13:47 | 46.22207 | 21.93625 | 38103 ft | 476 kts | 302° |
| 2026-05-04 13:47 | 46.25583 | 21.85398 | 38105 ft | 476 kts | 302° |
| 2026-05-04 13:48 | 46.28950 | 21.77169 | 38104 ft | 475 kts | 302° |
| 2026-05-04 13:48 | 46.32305 | 21.68943 | 38099 ft | 475 kts | 302° |
| 2026-05-04 13:49 | 46.35652 | 21.60721 | 38102 ft | 474 kts | 302° |
| 2026-05-04 13:49 | 46.38994 | 21.52497 | 38094 ft | 474 kts | 302° |
| 2026-05-04 13:50 | 46.42333 | 21.44258 | 38095 ft | 473 kts | 302° |
| 2026-05-04 13:50 | 46.45661 | 21.36022 | 38093 ft | 473 kts | 302° |
| 2026-05-04 13:51 | 46.48961 | 21.27771 | 38089 ft | 473 kts | 300° |
| 2026-05-04 13:51 | 46.51918 | 21.19214 | 38083 ft | 474 kts | 298° |
| 2026-05-04 13:52 | 46.56395 | 21.06428 | 38091 ft | 473 kts | 298° |
| 2026-05-04 13:53 | 46.59366 | 20.97880 | 38089 ft | 474 kts | 298° |
| 2026-05-04 13:53 | 46.61819 | 20.90763 | 38095 ft | 474 kts | 298° |
| 2026-05-04 13:54 | 46.66237 | 20.77882 | 38094 ft | 474 kts | 298° |
| 2026-05-04 13:55 | 46.70639 | 20.64985 | 38093 ft | 474 kts | 298° |
| 2026-05-04 13:55 | 46.75024 | 20.52075 | 38098 ft | 473 kts | 298° |
| 2026-05-04 13:56 | 46.77934 | 20.43473 | 38098 ft | 473 kts | 298° |
| 2026-05-04 13:57 | 46.82281 | 20.30567 | 38097 ft | 472 kts | 298° |
| 2026-05-04 13:58 | 46.88041 | 20.13368 | 38090 ft | 471 kts | 297° |
| 2026-05-04 13:58 | 46.92339 | 20.00461 | 38086 ft | 470 kts | 297° |
| 2026-05-04 13:59 | 46.95192 | 19.91858 | 38087 ft | 470 kts | 297° |
| 2026-05-04 14:00 | 46.99457 | 19.78944 | 38080 ft | 469 kts | 297° |
| 2026-05-04 14:00 | 47.03701 | 19.66026 | 38075 ft | 469 kts | 297° |
| 2026-05-04 14:01 | 47.06522 | 19.57407 | 38072 ft | 469 kts | 297° |
| 2026-05-04 14:02 | 47.10738 | 19.44467 | 38072 ft | 468 kts | 296° |
| 2026-05-04 14:02 | 47.13541 | 19.35829 | 38072 ft | 468 kts | 296° |
| 2026-05-04 14:03 | 47.16334 | 19.27193 | 38068 ft | 468 kts | 296° |
| 2026-05-04 14:03 | 47.19119 | 19.18550 | 38076 ft | 468 kts | 296° |
| 2026-05-04 14:04 | 47.23281 | 19.05583 | 38076 ft | 467 kts | 296° |
| 2026-05-04 14:04 | 47.26044 | 18.96936 | 38078 ft | 467 kts | 296° |
| 2026-05-04 14:05 | 47.30175 | 18.83953 | 38075 ft | 467 kts | 296° |
| 2026-05-04 14:06 | 47.32920 | 18.75290 | 38070 ft | 466 kts | 296° |
| 2026-05-04 14:06 | 47.35654 | 18.66633 | 38068 ft | 466 kts | 295° |
| 2026-05-04 14:07 | 47.38380 | 18.57969 | 38064 ft | 465 kts | 295° |
| 2026-05-04 14:07 | 47.41098 | 18.49305 | 38055 ft | 465 kts | 295° |
| 2026-05-04 14:08 | 47.43806 | 18.40640 | 38057 ft | 464 kts | 295° |
| 2026-05-04 14:08 | 47.46504 | 18.31978 | 38055 ft | 464 kts | 295° |
| 2026-05-04 14:09 | 47.50537 | 18.18970 | 38034 ft | 464 kts | 295° |
| 2026-05-04 14:10 | 47.54558 | 18.05940 | 38023 ft | 464 kts | 295° |
| 2026-05-04 14:10 | 47.57228 | 17.97249 | 38020 ft | 464 kts | 295° |
| 2026-05-04 14:11 | 47.59890 | 17.88552 | 38017 ft | 463 kts | 295° |
| 2026-05-04 14:11 | 47.63867 | 17.75504 | 38019 ft | 463 kts | 295° |
| 2026-05-04 14:12 | 47.66510 | 17.66797 | 38023 ft | 463 kts | 295° |
| 2026-05-04 14:13 | 47.70460 | 17.53721 | 38023 ft | 463 kts | 294° |
| 2026-05-04 14:13 | 47.73082 | 17.45005 | 38017 ft | 462 kts | 294° |
| 2026-05-04 14:14 | 47.75697 | 17.36280 | 38011 ft | 462 kts | 294° |
| 2026-05-04 14:14 | 47.79604 | 17.23196 | 38003 ft | 461 kts | 294° |
| 2026-05-04 14:15 | 47.85754 | 17.06620 | 37989 ft | 461 kts | 309° |
| 2026-05-04 14:16 | 47.91874 | 16.95565 | 37979 ft | 461 kts | 308° |
| 2026-05-04 14:17 | 47.97963 | 16.84480 | 37964 ft | 460 kts | 308° |
| 2026-05-04 14:18 | 48.04048 | 16.73366 | 37963 ft | 461 kts | 308° |
| 2026-05-04 14:19 | 48.12141 | 16.58513 | 37960 ft | 461 kts | 308° |
| 2026-05-04 14:19 | 48.16189 | 16.51054 | 37957 ft | 461 kts | 308° |
| 2026-05-04 14:20 | 48.20229 | 16.43589 | 37956 ft | 461 kts | 308° |
| 2026-05-04 14:20 | 48.24267 | 16.36106 | 37962 ft | 462 kts | 308° |
| 2026-05-04 14:21 | 48.30320 | 16.24852 | 37959 ft | 462 kts | 307° |
| 2026-05-04 14:21 | 48.34352 | 16.17327 | 37962 ft | 462 kts | 307° |
| 2026-05-04 14:22 | 48.38377 | 16.09794 | 37962 ft | 462 kts | 307° |
| 2026-05-04 14:22 | 48.42395 | 16.02255 | 37964 ft | 462 kts | 307° |
| 2026-05-04 14:23 | 48.48407 | 15.90934 | 37962 ft | 461 kts | 307° |
| 2026-05-04 14:24 | 48.52409 | 15.83370 | 37961 ft | 461 kts | 307° |
| 2026-05-04 14:24 | 48.56403 | 15.75803 | 37960 ft | 461 kts | 307° |
| 2026-05-04 14:25 | 48.60399 | 15.68208 | 37962 ft | 461 kts | 307° |
| 2026-05-04 14:25 | 48.66375 | 15.56810 | 37963 ft | 461 kts | 306° |
| 2026-05-04 14:26 | 48.70357 | 15.49188 | 37960 ft | 461 kts | 306° |
| 2026-05-04 14:26 | 48.74331 | 15.41562 | 37962 ft | 461 kts | 306° |
| 2026-05-04 14:27 | 48.78299 | 15.33924 | 37957 ft | 461 kts | 306° |
| 2026-05-04 14:27 | 48.82266 | 15.26265 | 37959 ft | 462 kts | 306° |
| 2026-05-04 14:28 | 48.86229 | 15.18593 | 37954 ft | 462 kts | 306° |
| 2026-05-04 14:28 | 48.90156 | 15.10881 | 37958 ft | 461 kts | 303° |
| 2026-05-04 14:29 | 48.97379 | 14.94841 | 37959 ft | 461 kts | 302° |
| 2026-05-04 14:30 | 49.01008 | 14.86794 | 37958 ft | 461 kts | 302° |
| 2026-05-04 14:31 | 49.06439 | 14.74665 | 37962 ft | 462 kts | 302° |
| 2026-05-04 14:32 | 49.13654 | 14.58461 | 37967 ft | 462 kts | 302° |
| 2026-05-04 14:32 | 49.17255 | 14.50336 | 37964 ft | 462 kts | 302° |
| 2026-05-04 14:33 | 49.20855 | 14.42191 | 37969 ft | 462 kts | 302° |
| 2026-05-04 14:33 | 49.24444 | 14.34045 | 37972 ft | 462 kts | 302° |
| 2026-05-04 14:34 | 49.28026 | 14.25889 | 37974 ft | 461 kts | 301° |
| 2026-05-04 14:34 | 49.30998 | 14.19104 | 37967 ft | 461 kts | 301° |
| 2026-05-04 14:35 | 49.34566 | 14.10934 | 37967 ft | 461 kts | 301° |
| 2026-05-04 14:35 | 49.38128 | 14.02753 | 37969 ft | 461 kts | 301° |
| 2026-05-04 14:36 | 49.41683 | 13.94565 | 37969 ft | 461 kts | 301° |
| 2026-05-04 14:36 | 49.45231 | 13.86365 | 37968 ft | 461 kts | 301° |
| 2026-05-04 14:37 | 49.48772 | 13.78157 | 37974 ft | 461 kts | 301° |
| 2026-05-04 14:37 | 49.52306 | 13.69940 | 37975 ft | 460 kts | 301° |
| 2026-05-04 14:38 | 49.55834 | 13.61712 | 37973 ft | 460 kts | 301° |
| 2026-05-04 14:38 | 49.59358 | 13.53467 | 37972 ft | 460 kts | 301° |
| 2026-05-04 14:39 | 49.62873 | 13.45219 | 37966 ft | 460 kts | 300° |
| 2026-05-04 14:39 | 49.66383 | 13.36955 | 37968 ft | 460 kts | 300° |
| 2026-05-04 14:40 | 49.71641 | 13.24530 | 37962 ft | 461 kts | 300° |
| 2026-05-04 14:40 | 49.75139 | 13.16232 | 37958 ft | 461 kts | 300° |
| 2026-05-04 14:41 | 49.78633 | 13.07914 | 37961 ft | 461 kts | 300° |
| 2026-05-04 14:42 | 49.85616 | 12.91216 | 37958 ft | 462 kts | 300° |
| 2026-05-04 14:42 | 49.89098 | 12.82850 | 37964 ft | 462 kts | 300° |
| 2026-05-04 14:43 | 49.90846 | 12.78638 | 38108 ft | 466 kts | 300° |
| 2026-05-04 14:43 | 49.92599 | 12.74410 | 38601 ft | 466 kts | 300° |
| 2026-05-04 14:43 | 49.94350 | 12.70180 | 38994 ft | 466 kts | 300° |
| 2026-05-04 14:43 | 49.96099 | 12.65946 | 39330 ft | 466 kts | 300° |
| 2026-05-04 14:44 | 49.97851 | 12.61699 | 39664 ft | 467 kts | 300° |
| 2026-05-04 14:44 | 49.99603 | 12.57448 | 39919 ft | 469 kts | 300° |
| 2026-05-04 14:44 | 50.03113 | 12.48908 | 39971 ft | 463 kts | 300° |
| 2026-05-04 14:45 | 50.06226 | 12.40178 | 39964 ft | 462 kts | 292° |
| 2026-05-04 14:45 | 50.08605 | 12.30918 | 39969 ft | 459 kts | 286° |
| 2026-05-04 14:46 | 50.10655 | 12.21496 | 39982 ft | 459 kts | 287° |
| 2026-05-04 14:46 | 50.12722 | 12.12087 | 39989 ft | 460 kts | 286° |
| 2026-05-04 14:47 | 50.14767 | 12.02644 | 39995 ft | 460 kts | 286° |
| 2026-05-04 14:47 | 50.16802 | 11.93172 | 39996 ft | 460 kts | 286° |
| 2026-05-04 14:48 | 50.18825 | 11.83708 | 40002 ft | 460 kts | 286° |
| 2026-05-04 14:48 | 50.20828 | 11.74299 | 39989 ft | 460 kts | 286° |
| 2026-05-04 14:49 | 50.22836 | 11.64820 | 39988 ft | 460 kts | 285° |
| 2026-05-04 14:49 | 50.24835 | 11.55343 | 39989 ft | 460 kts | 285° |
| 2026-05-04 14:50 | 50.26827 | 11.45847 | 39980 ft | 460 kts | 285° |
| 2026-05-04 14:50 | 50.28811 | 11.36353 | 39975 ft | 460 kts | 285° |
| 2026-05-04 14:51 | 50.30789 | 11.26838 | 39973 ft | 460 kts | 285° |
| 2026-05-04 14:51 | 50.32760 | 11.17312 | 39976 ft | 460 kts | 285° |
| 2026-05-04 14:52 | 50.34725 | 11.07767 | 39978 ft | 461 kts | 285° |
| 2026-05-04 14:52 | 50.36686 | 10.98200 | 39983 ft | 461 kts | 285° |
| 2026-05-04 14:53 | 50.38640 | 10.88621 | 39979 ft | 462 kts | 285° |
| 2026-05-04 14:53 | 50.40587 | 10.79027 | 39983 ft | 462 kts | 285° |
| 2026-05-04 14:54 | 50.42529 | 10.69409 | 39979 ft | 463 kts | 285° |
| 2026-05-04 14:54 | 50.44463 | 10.59787 | 39979 ft | 463 kts | 285° |
| 2026-05-04 14:55 | 50.46394 | 10.50137 | 39978 ft | 463 kts | 285° |
| 2026-05-04 14:55 | 50.48324 | 10.40496 | 39973 ft | 463 kts | 285° |
| 2026-05-04 14:56 | 50.50266 | 10.30842 | 39971 ft | 463 kts | 285° |
| 2026-05-04 14:56 | 50.52196 | 10.21189 | 39972 ft | 463 kts | 284° |
| 2026-05-04 14:57 | 50.54118 | 10.11523 | 39974 ft | 463 kts | 284° |
| 2026-05-04 14:57 | 50.56031 | 10.01848 | 39975 ft | 464 kts | 284° |
| 2026-05-04 14:58 | 50.57937 | 9.92158 | 39972 ft | 463 kts | 284° |
| 2026-05-04 14:58 | 50.59833 | 9.82474 | 39973 ft | 463 kts | 284° |
| 2026-05-04 14:59 | 50.61721 | 9.72779 | 39971 ft | 463 kts | 284° |
| 2026-05-04 15:00 | 50.64542 | 9.58208 | 39963 ft | 463 kts | 284° |
| 2026-05-04 15:00 | 50.66411 | 9.48488 | 39961 ft | 463 kts | 284° |
| 2026-05-04 15:01 | 50.69201 | 9.33888 | 39969 ft | 464 kts | 284° |
| 2026-05-04 15:01 | 50.71055 | 9.24122 | 39970 ft | 465 kts | 284° |
| 2026-05-04 15:02 | 50.72677 | 9.14266 | 39974 ft | 464 kts | 281° |
| 2026-05-04 15:02 | 50.74191 | 9.04372 | 39975 ft | 464 kts | 281° |
| 2026-05-04 15:03 | 50.75714 | 8.94460 | 39977 ft | 464 kts | 281° |
| 2026-05-04 15:03 | 50.77219 | 8.84535 | 39978 ft | 464 kts | 281° |
| 2026-05-04 15:04 | 50.78709 | 8.74619 | 39975 ft | 464 kts | 281° |
| 2026-05-04 15:04 | 50.80192 | 8.64680 | 39973 ft | 464 kts | 281° |
| 2026-05-04 15:05 | 50.81665 | 8.54748 | 39982 ft | 464 kts | 280° |
| 2026-05-04 15:05 | 50.83131 | 8.44803 | 39991 ft | 464 kts | 280° |
| 2026-05-04 15:06 | 50.84587 | 8.34858 | 39999 ft | 464 kts | 280° |
| 2026-05-04 15:07 | 50.86758 | 8.19914 | 40005 ft | 465 kts | 280° |
| 2026-05-04 15:07 | 50.88195 | 8.09941 | 40000 ft | 465 kts | 280° |
| 2026-05-04 15:08 | 50.89623 | 7.99961 | 40003 ft | 465 kts | 280° |
| 2026-05-04 15:08 | 50.91045 | 7.89963 | 39991 ft | 465 kts | 280° |
| 2026-05-04 15:09 | 50.92450 | 7.80019 | 39985 ft | 466 kts | 280° |
| 2026-05-04 15:09 | 50.93855 | 7.70002 | 39970 ft | 466 kts | 280° |
| 2026-05-04 15:10 | 50.95948 | 7.54963 | 39976 ft | 466 kts | 279° |
| 2026-05-04 15:11 | 50.98023 | 7.39896 | 39981 ft | 466 kts | 279° |
| 2026-05-04 15:11 | 50.99395 | 7.29856 | 39985 ft | 466 kts | 279° |
| 2026-05-04 15:12 | 51.00758 | 7.19802 | 39987 ft | 465 kts | 279° |
| 2026-05-04 15:12 | 51.02111 | 7.09757 | 39992 ft | 465 kts | 279° |
| 2026-05-04 15:13 | 51.03456 | 6.99705 | 39984 ft | 465 kts | 279° |
| 2026-05-04 15:13 | 51.04791 | 6.89652 | 39984 ft | 465 kts | 279° |
| 2026-05-04 15:14 | 51.06117 | 6.79597 | 39990 ft | 465 kts | 279° |
| 2026-05-04 15:14 | 51.07435 | 6.69533 | 39971 ft | 465 kts | 279° |
| 2026-05-04 15:15 | 51.08745 | 6.59460 | 39967 ft | 465 kts | 279° |
| 2026-05-04 15:15 | 51.10047 | 6.49377 | 39965 ft | 465 kts | 279° |
| 2026-05-04 15:16 | 51.11767 | 6.35938 | 39967 ft | 466 kts | 279° |
| 2026-05-04 15:17 | 51.13689 | 6.20761 | 39973 ft | 467 kts | 278° |
| 2026-05-04 15:17 | 51.15596 | 6.05540 | 39990 ft | 467 kts | 278° |
| 2026-05-04 15:18 | 51.16858 | 5.95373 | 39974 ft | 468 kts | 278° |
| 2026-05-04 15:19 | 51.19815 | 5.80478 | 39971 ft | 475 kts | 292° |
| 2026-05-04 15:19 | 51.24829 | 5.66767 | 39957 ft | 479 kts | 299° |
| 2026-05-04 15:20 | 51.28344 | 5.57713 | 39984 ft | 481 kts | 298° |
| 2026-05-04 15:20 | 51.31869 | 5.48605 | 39984 ft | 481 kts | 298° |
| 2026-05-04 15:21 | 51.35382 | 5.39504 | 39969 ft | 481 kts | 298° |
| 2026-05-04 15:22 | 51.40645 | 5.25812 | 39971 ft | 481 kts | 298° |
| 2026-05-04 15:22 | 51.45882 | 5.12116 | 39967 ft | 480 kts | 298° |
| 2026-05-04 15:23 | 51.49365 | 5.02966 | 39958 ft | 480 kts | 298° |
| 2026-05-04 15:23 | 51.52841 | 4.93800 | 39957 ft | 481 kts | 298° |
| 2026-05-04 15:24 | 51.58000 | 4.74204 | 39958 ft | 476 kts | 283° |
| 2026-05-04 15:25 | 51.59833 | 4.63970 | 39960 ft | 476 kts | 284° |
| 2026-05-04 15:26 | 51.62588 | 4.48585 | 39966 ft | 478 kts | 283° |
| 2026-05-04 15:26 | 51.65303 | 4.33136 | 39970 ft | 478 kts | 283° |
| 2026-05-04 15:27 | 51.67999 | 4.17648 | 39973 ft | 479 kts | 283° |
| 2026-05-04 15:28 | 51.70679 | 4.02122 | 39988 ft | 480 kts | 283° |
| 2026-05-04 15:29 | 51.73342 | 3.86558 | 40000 ft | 480 kts | 283° |
| 2026-05-04 15:30 | 51.79407 | 3.50581 | 40007 ft | 481 kts | 283° |
| 2026-05-04 15:31 | 51.82008 | 3.34922 | 40013 ft | 481 kts | 283° |
| 2026-05-04 15:32 | 51.84255 | 3.08407 | 39989 ft | 476 kts | 265° |
| 2026-05-04 15:34 | 51.82621 | 2.82055 | 39372 ft | 465 kts | 262° |
| 2026-05-04 15:34 | 51.82276 | 2.76861 | 39142 ft | 465 kts | 262° |
| 2026-05-04 15:34 | 51.81571 | 2.66448 | 38216 ft | 467 kts | 261° |
| 2026-05-04 15:35 | 51.80849 | 2.55974 | 36420 ft | 471 kts | 261° |
| 2026-05-04 15:35 | 51.80481 | 2.50701 | 35428 ft | 473 kts | 261° |
| 2026-05-04 15:35 | 51.80111 | 2.45417 | 34413 ft | 472 kts | 261° |
| 2026-05-04 15:36 | 51.79389 | 2.35152 | 33298 ft | 445 kts | 260° |
| 2026-05-04 15:36 | 51.79038 | 2.30227 | 32777 ft | 437 kts | 260° |
| 2026-05-04 15:36 | 51.78688 | 2.25375 | 32100 ft | 435 kts | 260° |
| 2026-05-04 15:37 | 51.78338 | 2.20529 | 31660 ft | 433 kts | 261° |
| 2026-05-04 15:37 | 51.78037 | 2.15700 | 31163 ft | 432 kts | 262° |
| 2026-05-04 15:37 | 51.77765 | 2.10879 | 30626 ft | 429 kts | 262° |
| 2026-05-04 15:37 | 51.77498 | 2.06097 | 30076 ft | 425 kts | 262° |
| 2026-05-04 15:38 | 51.77224 | 2.01336 | 29173 ft | 428 kts | 262° |
| 2026-05-04 15:38 | 51.76942 | 1.96578 | 28604 ft | 423 kts | 262° |
| 2026-05-04 15:38 | 51.76662 | 1.91888 | 28309 ft | 417 kts | 262° |
| 2026-05-04 15:38 | 51.76379 | 1.87225 | 27951 ft | 417 kts | 262° |
| 2026-05-04 15:39 | 51.76093 | 1.82572 | 27416 ft | 415 kts | 262° |
| 2026-05-04 15:39 | 51.75809 | 1.77954 | 26892 ft | 411 kts | 262° |
| 2026-05-04 15:39 | 51.75246 | 1.68887 | 25859 ft | 401 kts | 262° |
| 2026-05-04 15:40 | 51.74967 | 1.64440 | 25354 ft | 396 kts | 262° |
| 2026-05-04 15:40 | 51.74689 | 1.60025 | 25065 ft | 396 kts | 262° |
| 2026-05-04 15:40 | 51.74408 | 1.55611 | 24696 ft | 396 kts | 262° |
| 2026-05-04 15:40 | 51.74124 | 1.51176 | 23911 ft | 401 kts | 262° |
| 2026-05-04 15:41 | 51.73832 | 1.46652 | 22849 ft | 408 kts | 263° |
| 2026-05-04 15:41 | 51.73538 | 1.42108 | 21834 ft | 405 kts | 263° |
| 2026-05-04 15:41 | 51.73249 | 1.37644 | 21165 ft | 395 kts | 263° |
| 2026-05-04 15:41 | 51.72968 | 1.33323 | 20816 ft | 381 kts | 262° |
| 2026-05-04 15:42 | 51.72689 | 1.29076 | 20601 ft | 381 kts | 262° |
| 2026-05-04 15:42 | 51.72407 | 1.24820 | 20040 ft | 381 kts | 262° |
| 2026-05-04 15:42 | 51.72124 | 1.20576 | 19466 ft | 379 kts | 262° |
| 2026-05-04 15:42 | 51.71842 | 1.16370 | 18901 ft | 376 kts | 262° |
| 2026-05-04 15:43 | 51.71561 | 1.12187 | 18340 ft | 374 kts | 262° |
| 2026-05-04 15:43 | 51.71280 | 1.08035 | 17738 ft | 371 kts | 262° |
| 2026-05-04 15:43 | 51.71000 | 1.03921 | 17187 ft | 367 kts | 262° |
| 2026-05-04 15:43 | 51.70721 | 0.99854 | 16638 ft | 363 kts | 262° |
| 2026-05-04 15:44 | 51.70445 | 0.95828 | 16174 ft | 359 kts | 262° |
| 2026-05-04 15:44 | 51.70171 | 0.91862 | 15896 ft | 354 kts | 262° |
| 2026-05-04 15:44 | 51.69899 | 0.87942 | 15844 ft | 351 kts | 262° |
| 2026-05-04 15:44 | 51.69625 | 0.84017 | 15840 ft | 354 kts | 262° |
| 2026-05-04 15:45 | 51.69346 | 0.80051 | 15839 ft | 357 kts | 262° |
| 2026-05-04 15:45 | 51.69067 | 0.76084 | 15787 ft | 355 kts | 262° |
| 2026-05-04 15:45 | 51.68786 | 0.72124 | 15530 ft | 356 kts | 262° |
| 2026-05-04 15:45 | 51.68504 | 0.68159 | 15221 ft | 355 kts | 262° |
| 2026-05-04 15:46 | 51.68224 | 0.64246 | 14843 ft | 347 kts | 262° |
| 2026-05-04 15:46 | 51.67954 | 0.60468 | 14517 ft | 332 kts | 262° |
| 2026-05-04 15:46 | 51.67693 | 0.56850 | 14170 ft | 320 kts | 263° |
| 2026-05-04 15:46 | 51.67440 | 0.53353 | 13838 ft | 308 kts | 263° |
| 2026-05-04 15:47 | 51.67195 | 0.49982 | 13464 ft | 300 kts | 263° |
| 2026-05-04 15:47 | 51.66953 | 0.46668 | 13036 ft | 294 kts | 263° |
| 2026-05-04 15:47 | 51.66714 | 0.43422 | 12617 ft | 290 kts | 263° |
| 2026-05-04 15:47 | 51.66477 | 0.40206 | 12211 ft | 288 kts | 263° |
| 2026-05-04 15:48 | 51.66240 | 0.36998 | 11811 ft | 288 kts | 263° |
| 2026-05-04 15:48 | 51.66004 | 0.33809 | 11418 ft | 287 kts | 263° |
| 2026-05-04 15:48 | 51.65531 | 0.27466 | 10619 ft | 282 kts | 263° |
| 2026-05-04 15:49 | 51.65298 | 0.24360 | 10233 ft | 278 kts | 263° |
| 2026-05-04 15:49 | 51.65066 | 0.21277 | 9776 ft | 275 kts | 262° |
| 2026-05-04 15:49 | 51.64838 | 0.18249 | 9296 ft | 269 kts | 262° |
| 2026-05-04 15:49 | 51.64614 | 0.15286 | 8821 ft | 263 kts | 260° |
| 2026-05-04 15:50 | 51.63984 | 0.12598 | 8327 ft | 257 kts | 233° |
| 2026-05-04 15:50 | 51.62786 | 0.10489 | 7847 ft | 254 kts | 226° |
| 2026-05-04 15:50 | 51.61544 | 0.08467 | 7371 ft | 251 kts | 226° |
| 2026-05-04 15:50 | 51.60343 | 0.06516 | 6859 ft | 247 kts | 226° |
| 2026-05-04 15:51 | 51.59126 | 0.04532 | 6385 ft | 244 kts | 226° |
| 2026-05-04 15:51 | 51.57962 | 0.02635 | 5969 ft | 239 kts | 226° |
| 2026-05-04 15:51 | 51.56805 | 0.00745 | 5582 ft | 236 kts | 226° |
| 2026-05-04 15:51 | 51.55665 | -0.01126 | 5218 ft | 233 kts | 226° |
| 2026-05-04 15:52 | 51.54528 | -0.02989 | 4893 ft | 232 kts | 226° |
| 2026-05-04 15:52 | 51.53381 | -0.04875 | 4635 ft | 234 kts | 226° |
| 2026-05-04 15:52 | 51.52259 | -0.06718 | 4332 ft | 233 kts | 226° |
| 2026-05-04 15:52 | 51.51132 | -0.08567 | 4072 ft | 230 kts | 226° |
| 2026-05-04 15:53 | 51.50013 | -0.10396 | 3825 ft | 228 kts | 226° |
| 2026-05-04 15:53 | 51.48924 | -0.12165 | 3598 ft | 213 kts | 226° |
| 2026-05-04 15:53 | 51.47911 | -0.13812 | 3364 ft | 207 kts | 226° |
| 2026-05-04 15:53 | 51.47053 | -0.15693 | 3113 ft | 212 kts | 246° |
| 2026-05-04 15:54 | 51.46677 | -0.17971 | 3007 ft | 207 kts | 263° |
| 2026-05-04 15:54 | 51.46578 | -0.20193 | 2973 ft | 194 kts | 270° |
| 2026-05-04 15:54 | 51.46560 | -0.22342 | 2727 ft | 189 kts | 272° |
| 2026-05-04 15:54 | 51.46552 | -0.24386 | 2471 ft | 178 kts | 271° |
| 2026-05-04 15:55 | 51.46547 | -0.26320 | 2240 ft | 171 kts | 272° |
| 2026-05-04 15:55 | 51.46541 | -0.28203 | 2024 ft | 168 kts | 272° |
| 2026-05-04 15:55 | 51.46536 | -0.30083 | 1795 ft | 169 kts | 273° |
| 2026-05-04 15:55 | 51.46530 | -0.31930 | 1565 ft | 164 kts | 272° |
| 2026-05-04 15:56 | 51.46524 | -0.33773 | 1352 ft | 166 kts | 272° |
| 2026-05-04 15:56 | 51.46518 | -0.35594 | 1122 ft | 158 kts | 272° |
| 2026-05-04 15:56 | 51.46509 | -0.37289 | 858 ft | 147 kts | 272° |
| 2026-05-04 15:56 | 51.46488 | -0.38874 | 603 ft | 141 kts | 273° |
| 2026-05-04 15:57 | 51.46483 | -0.39953 | 490 ft | 144 kts | 274° |
| 2026-05-04 15:57 | 51.46497 | -0.41537 | 354 ft | 142 kts | 273° |
| 2026-05-04 15:57 | 51.46489 | -0.43136 | 158 ft | 141 kts | 273° |
| 2026-05-04 15:57 | 51.46497 | -0.44583 | 93 ft | 112 kts | 271° |
| 2026-05-04 15:58 | 51.46496 | -0.45633 | 92 ft | 78 kts | 270° |
| 2026-05-04 15:58 | 51.46474 | -0.46392 | 95 ft | 48 kts | 257° |
| 2026-05-04 15:58 | 51.46418 | -0.46651 | 95 ft | 16 kts | 245° |
| 2026-05-04 15:58 | 51.46362 | -0.46756 | 95 ft | 10 kts | 173° |
| 2026-05-04 15:59 | 51.46322 | -0.46666 | 92 ft | 12 kts | 92° |
| 2026-05-04 15:59 | 51.46318 | -0.46517 | 95 ft | 15 kts | 92° |
| 2026-05-04 15:59 | 51.46318 | -0.46335 | 94 ft | 18 kts | 89° |
| 2026-05-04 15:59 | 51.46320 | -0.46131 | 96 ft | 18 kts | 89° |
| 2026-05-04 16:00 | 51.46322 | -0.45956 | 94 ft | 11 kts | 89° |
| 2026-05-04 16:00 | 51.46323 | -0.45840 | 93 ft | 7 kts | 89° |
| 2026-05-04 16:00 | 51.46324 | -0.45741 | 93 ft | 11 kts | 89° |
| 2026-05-04 16:00 | 51.46310 | -0.45615 | 96 ft | 12 kts | 121° |
| 2026-05-04 16:01 | 51.46240 | -0.45519 | 97 ft | 16 kts | 141° |
| 2026-05-04 16:01 | 51.46196 | -0.45353 | 94 ft | 18 kts | 87° |
| 2026-05-04 16:01 | 51.46201 | -0.45140 | 93 ft | 20 kts | 88° |
| 2026-05-04 16:01 | 51.46201 | -0.44979 | 91 ft | 9 kts | 92° |
| 2026-05-04 16:02 | 51.46186 | -0.44838 | 94 ft | 15 kts | 119° |
| 2026-05-04 16:02 | 51.46160 | -0.44783 | 95 ft | 4 kts | 133° |
| 2026-05-04 16:02 | 51.46131 | -0.44735 | 96 ft | 0 kts | 132° |
| 2026-05-04 16:03 | 51.46129 | -0.44730 | 96 ft | 0 kts | 132° |